Главная страница
METAR-TAF:

METAR-TAF

Аэропорты :

Конакри, Гвинея

широта: 09-34N, долгота: 013-37W, высота над уровнем моря: 26 м

Текущие метеонаблюдения

Эта сводка был подготовлена 6 часа и 20 минут назад, в 21:00 UTC
Ветер 4 Узел от северо-западный
Температура 28°C
Влажность 74%
Давление 1012 hPa
Видимость: 3000 м
мгла

METAR: GUCY 252100Z 32004KT 3000 HZ NSC 28/23 Q1012 NOSIG

Время: 03:20 (03:20 UTC)

Прогноз

Эта сводка был подготовлена 10 часа и 20 минут назад, в 17:00 UTC
Прогноз действительный с 25-го 18 UTC до 26-го 24 UTC
Ветер 8 Узел от западно-северо-западный
Видимость: 4000 м
мгла
временами
С 26-го 04 UTC до 26-го 08 UTC
Ветер 2 Узел переменных направлений
Видимость: 2000 м
небольшая облачность на высоте 1600 фута
дымка

TAF: GUCY 251700Z 2518/2624 30008KT 4000 HZ NSC TEMPO 2604/2608 VRB02KT 2000 BR FEW016

Метеонаблюдения и прогнозы для более 4000 аэропортов (сводки METAR и TAF).

Имеющиеся станции представлены на карте желтыми и красными точками.

Чтобы увидеть название станции, наведите на нее мышь.

Затем щелкните, чтобы увидеть метеонаблюдения и метеопрогнозы.

Управление картой: чтобы увеличить масштаб, щелкните зеленые кнопки с черным крестиком; чтобы уменьшить масштаб, щелкните зеленую кнопку с тире; для просмотра соседних карт щелкайте зеленые стрелки.


METAR-TAF: